Time;durP1;ratioP1;P1;durP2;ratioP2;P2;SDS_P1;SDS_P2;PMS_P1;PMS_P2;Temp;Humidity;BMP_temperature;BMP_pressure;BME280_temperature;BME280_humidity;BME280_pressure;Samples;Min_cycle;Max_cycle;Signal;HPM_P1;HPM_P2
2023/05/10 00:02:02;;;;;;;;;;;;;;;15.95;48.71;100655.59;5328225;32;33240;-63
2023/05/10 00:05:05;;;;;;;;;;;;;;;16.30;47.96;100648.28;5338726;32;34393;-75
2023/05/10 00:08:06;;;;;;;;;;;;;;;16.19;48.20;100648.03;5315606;32;35948;-75
2023/05/10 00:11:08;;;;;;;;;;;;;;;16.30;47.93;100645.62;5326858;32;34464;-63
2023/05/10 00:14:11;;;;;;;;;;;;;;;16.07;48.65;100644.28;5329294;32;34301;-64
2023/05/10 00:17:12;;;;;;;;;;;;;;;16.16;48.32;100635.78;5336988;32;34342;-62
2023/05/10 00:20:15;;;;;;;;;;;;;;;15.91;49.10;100641.69;5333687;32;36123;-75
2023/05/10 00:23:17;;;;;;;;;;;;;;;15.92;49.11;100640.72;5326983;32;44545;-63
2023/05/10 00:26:19;;;;;;;;;;;;;;;15.77;49.66;100641.59;5324897;32;34254;-63
2023/05/10 00:29:21;;;;;;;;;;;;;;;15.70;49.88;100641.06;5328108;32;34480;-64
2023/05/10 00:32:25;;;;;;;;;;;;;;;15.53;50.42;100651.75;5336934;32;34472;-75
2023/05/10 00:35:28;;;;;;;;;;;;;;;15.67;50.09;100643.06;5332520;32;34437;-63
2023/05/10 00:38:30;;;;;;;;;;;;;;;15.56;50.33;100637.47;5335010;32;35850;-64
2023/05/10 00:41:32;;;;;;;;;;;;;;;15.46;50.58;100637.13;5335248;32;34407;-71
2023/05/10 00:44:34;;;;;;;;;;;;;;;15.43;50.75;100634.66;5326745;32;34302;-75
2023/05/10 00:47:36;;;;;;;;;;;;;;;15.41;50.85;100640.03;5326147;32;35757;-62
2023/05/10 00:50:39;;;;;;;;;;;;;;;15.36;51.01;100641.22;5323113;32;35528;-77
2023/05/10 00:53:41;;;;;;;;;;;;;;;14.47;53.24;100645.91;5334708;32;34443;-77
2023/05/10 00:56:48;;;;;;;;;;;;;;;14.51;53.58;100641.34;5317996;32;42955;-74
2023/05/10 00:59:50;;;;;;;;;;;;;;;15.28;51.59;100636.34;5315940;32;35897;-72
2023/05/10 01:02:53;;;;;;;;;;;;;;;14.97;52.50;100633.66;5325504;32;35874;-63
2023/05/10 01:05:55;;;;;;;;;;;;;;;14.87;53.02;100639.41;5311132;32;34297;-74
2023/05/10 01:08:57;;;;;;;;;;;;;;;15.13;52.50;100639.81;5342371;32;35500;-76
2023/05/10 01:11:59;;;;;;;;;;;;;;;15.25;51.92;100630.34;5330313;32;36104;-75
2023/05/10 01:15:01;;;;;;;;;;;;;;;15.21;52.16;100632.34;5327749;32;34327;-63
2023/05/10 01:18:03;;;;;;;;;;;;;;;14.57;53.64;100633.94;5329906;32;33319;-73
2023/05/10 01:21:09;;;;;;;;;;;;;;;15.24;52.18;100628.66;5329941;32;35019;-64
2023/05/10 01:24:11;;;;;;;;;;;;;;;15.30;52.07;100633.63;5338830;32;35317;-73
2023/05/10 01:27:13;;;;;;;;;;;;;;;15.30;52.10;100637.13;5327487;32;34404;-64
2023/05/10 01:30:34;;;;;;;;;;;;;;;15.51;51.57;100620.97;5332132;32;34936;-62
2023/05/10 01:33:39;;;;;;;;;;;;;;;14.78;54.15;100625.81;5325732;32;34450;-62
2023/05/10 01:36:53;;;;;;;;;;;;;;;15.28;52.41;100627.56;5325181;32;35601;-63
2023/05/10 01:39:58;;;;;;;;;;;;;;;15.14;52.51;100623.87;5319334;32;37227;-74
2023/05/10 01:43:01;;;;;;;;;;;;;;;15.33;52.33;100623.72;5313723;32;33801;-71
2023/05/10 01:46:10;;;;;;;;;;;;;;;15.14;52.92;100626.50;5335124;32;35878;-75
2023/05/10 01:49:18;;;;;;;;;;;;;;;15.23;52.90;100622.50;5308289;32;34701;-75
2023/05/10 01:52:22;;;;;;;;;;;;;;;14.61;54.53;100619.63;5335712;32;42832;-64
2023/05/10 01:55:26;;;;;;;;;;;;;;;15.45;52.01;100615.06;5326078;32;34315;-64
2023/05/10 01:58:32;;;;;;;;;;;;;;;15.53;51.54;100617.31;5314029;32;35756;-64
2023/05/10 02:01:33;;;;;;;;;;;;;;;15.44;51.71;100617.81;5328801;32;36150;-76
2023/05/10 02:04:36;;;;;;;;;;;;;;;15.41;51.85;100615.34;5310256;32;34402;-75
2023/05/10 02:07:37;;;;;;;;;;;;;;;15.30;52.02;100615.06;5322626;32;35612;-63
2023/05/10 02:10:39;;;;;;;;;;;;;;;15.19;52.46;100610.34;5314413;32;34446;-62
2023/05/10 02:13:42;;;;;;;;;;;;;;;15.05;52.62;100613.75;5334107;32;34979;-64
2023/05/10 02:16:44;;;;;;;;;;;;;;;15.33;51.49;100612.28;5336607;32;35794;-63
2023/05/10 02:19:46;;;;;;;;;;;;;;;15.16;51.79;100608.75;5312950;32;44786;-74
2023/05/10 02:22:48;;;;;;;;;;;;;;;15.13;51.74;100608.94;5337314;32;34205;-62
2023/05/10 02:25:50;;;;;;;;;;;;;;;15.19;51.25;100597.13;5310987;32;36045;-63
2023/05/10 02:28:54;;;;;;;;;;;;;;;15.14;51.09;100605.34;5326565;32;35038;-63
2023/05/10 02:31:56;;;;;;;;;;;;;;;14.93;51.62;100593.25;5325151;32;35664;-64
2023/05/10 02:34:58;;;;;;;;;;;;;;;15.23;51.04;100603.13;5322904;32;34785;-64
2023/05/10 02:38:00;;;;;;;;;;;;;;;15.08;51.47;100599.53;5318670;32;35635;-64
2023/05/10 02:41:02;;;;;;;;;;;;;;;15.36;50.72;100609.44;5312970;32;34824;-72
2023/05/10 02:44:05;;;;;;;;;;;;;;;15.06;51.54;100604.03;5324136;32;34485;-74
2023/05/10 02:47:07;;;;;;;;;;;;;;;15.08;51.43;100602.16;5306878;32;35571;-74
2023/05/10 02:50:09;;;;;;;;;;;;;;;15.34;50.61;100601.59;5329540;32;34410;-64
2023/05/10 02:53:11;;;;;;;;;;;;;;;15.25;50.84;100602.06;5326571;32;34589;-63
2023/05/10 02:56:15;;;;;;;;;;;;;;;14.92;51.37;100607.41;5322567;32;34582;-63
2023/05/10 02:59:17;;;;;;;;;;;;;;;15.12;50.83;100601.03;5332593;32;46826;-63
2023/05/10 03:02:20;;;;;;;;;;;;;;;15.45;49.49;100590.38;5329389;32;34254;-63
2023/05/10 03:05:21;;;;;;;;;;;;;;;15.37;49.52;100597.91;5327839;32;34425;-62
2023/05/10 03:08:23;;;;;;;;;;;;;;;15.09;50.12;100598.56;5326753;32;35845;-74
2023/05/10 03:11:34;;;;;;;;;;;;;;;15.13;50.19;100608.03;5338347;32;36221;-63
2023/05/10 03:14:39;;;;;;;;;;;;;;;15.22;49.76;100609.34;5328861;32;34178;-63
2023/05/10 03:18:11;;;;;;;;;;;;;;;15.03;50.15;100605.06;5332190;32;34203;-63
2023/05/10 03:21:13;;;;;;;;;;;;;;;14.82;50.36;100606.22;5322166;32;35628;-63
2023/05/10 03:24:17;;;;;;;;;;;;;;;14.85;50.42;100604.25;5312841;32;44836;-75
2023/05/10 03:27:22;;;;;;;;;;;;;;;14.83;50.39;100589.41;5326015;32;34397;-64
2023/05/10 03:30:24;;;;;;;;;;;;;;;14.70;50.86;100597.13;5327677;32;34367;-64
2023/05/10 03:33:26;;;;;;;;;;;;;;;15.06;49.83;100610.16;5331188;32;34420;-63
2023/05/10 03:36:28;;;;;;;;;;;;;;;14.86;50.29;100603.31;5340000;32;34438;-63
2023/05/10 03:39:30;;;;;;;;;;;;;;;14.74;50.26;100597.81;5314556;32;34383;-63
2023/05/10 03:42:31;;;;;;;;;;;;;;;14.73;50.45;100606.69;5338320;32;34871;-70
2023/05/10 03:45:34;;;;;;;;;;;;;;;14.62;50.74;100605.47;5329397;32;34414;-74
2023/05/10 03:48:36;;;;;;;;;;;;;;;14.56;51.09;100604.94;5319870;32;34433;-63
2023/05/10 03:51:38;;;;;;;;;;;;;;;15.15;48.97;100604.38;5318930;32;34265;-75
2023/05/10 03:54:40;;;;;;;;;;;;;;;15.17;49.18;100606.94;5330511;32;34295;-64
2023/05/10 03:57:42;;;;;;;;;;;;;;;14.88;49.95;100600.59;5338104;32;34318;-64
2023/05/10 04:00:44;;;;;;;;;;;;;;;15.35;48.42;100603.28;5328840;32;34299;-63
2023/05/10 04:03:46;;;;;;;;;;;;;;;14.73;50.09;100604.03;5322132;32;44621;-75
2023/05/10 04:06:51;;;;;;;;;;;;;;;15.04;48.85;100603.25;5325003;32;34336;-75
2023/05/10 04:09:52;;;;;;;;;;;;;;;15.15;48.69;100614.97;5337550;32;34824;-63
2023/05/10 04:12:54;;;;;;;;;;;;;;;15.26;48.63;100602.94;5329230;32;34403;-76
2023/05/10 04:15:56;;;;;;;;;;;;;;;15.35;48.46;100599.78;5334077;32;35208;-63
2023/05/10 04:18:59;;;;;;;;;;;;;;;15.52;48.03;100590.88;5336523;32;34365;-76
2023/05/10 04:22:01;;;;;;;;;;;;;;;15.27;48.52;100592.28;5327268;32;35462;-74
2023/05/10 04:25:04;;;;;;;;;;;;;;;15.33;48.58;100597.25;5324071;32;34364;-62
2023/05/10 04:28:06;;;;;;;;;;;;;;;15.43;48.36;100595.78;5313834;32;34317;-76
2023/05/10 04:31:08;;;;;;;;;;;;;;;15.31;48.75;100600.91;5338054;32;35613;-63
2023/05/10 04:34:10;;;;;;;;;;;;;;;15.25;48.78;100611.81;5328037;32;36029;-71
2023/05/10 04:37:12;;;;;;;;;;;;;;;15.21;48.96;100605.00;5331648;32;34304;-76
2023/05/10 04:40:14;;;;;;;;;;;;;;;14.66;50.53;100602.66;5325328;32;34269;-63
2023/05/10 04:43:16;;;;;;;;;;;;;;;15.34;48.70;100603.37;5312510;32;46174;-63
2023/05/10 04:46:18;;;;;;;;;;;;;;;15.30;48.88;100607.13;5341374;32;35209;-75
2023/05/10 04:49:20;;;;;;;;;;;;;;;14.82;50.02;100611.50;5309022;32;34392;-63
2023/05/10 04:52:22;;;;;;;;;;;;;;;15.53;48.82;100596.13;5336260;32;34258;-74
2023/05/10 04:55:24;;;;;;;;;;;;;;;16.67;45.98;100595.63;5313385;32;35895;-75
2023/05/10 04:58:26;;;;;;;;;;;;;;;17.70;42.95;100590.88;5315429;32;35984;-75
2023/05/10 05:01:29;;;;;;;;;;;;;;;17.98;42.28;100597.09;5336962;32;37920;-64
2023/05/10 05:04:31;;;;;;;;;;;;;;;18.36;41.06;100592.69;5311762;32;34294;-64
2023/05/10 05:07:33;;;;;;;;;;;;;;;18.63;40.55;100600.59;5334019;32;35984;-64
2023/05/10 05:10:35;;;;;;;;;;;;;;;17.97;41.27;100596.25;5325897;32;34296;-74
2023/05/10 05:13:37;;;;;;;;;;;;;;;17.92;41.74;100593.03;5337987;32;35971;-75
2023/05/10 05:16:39;;;;;;;;;;;;;;;17.67;42.57;100606.19;5317263;32;34690;-63
2023/05/10 05:19:41;;;;;;;;;;;;;;;17.24;43.12;100606.28;5326903;32;36141;-63
2023/05/10 05:22:43;;;;;;;;;;;;;;;17.22;43.56;100603.72;5335960;32;35711;-71
2023/05/10 05:25:45;;;;;;;;;;;;;;;17.49;43.07;100617.06;5312299;32;34300;-72
2023/05/10 05:28:48;;;;;;;;;;;;;;;17.20;43.71;100615.41;5335442;32;44566;-63
2023/05/10 05:31:50;;;;;;;;;;;;;;;17.31;43.25;100612.91;5327808;32;35581;-63
2023/05/10 05:34:55;;;;;;;;;;;;;;;16.75;44.58;100612.00;5326067;32;34207;-62
2023/05/10 05:37:57;;;;;;;;;;;;;;;16.62;44.90;100614.50;5311015;32;35471;-73
2023/05/10 05:40:59;;;;;;;;;;;;;;;17.28;43.80;100618.44;5326242;32;35549;-72
2023/05/10 05:44:01;;;;;;;;;;;;;;;17.66;42.95;100623.09;5333301;32;34384;-68
2023/05/10 05:47:03;;;;;;;;;;;;;;;18.17;41.76;100618.84;5313540;32;35237;-64
2023/05/10 05:50:05;;;;;;;;;;;;;;;18.08;42.29;100622.94;5327991;32;35565;-66
2023/05/10 05:53:09;;;;;;;;;;;;;;;19.07;40.11;100620.63;5319279;32;35579;-63
2023/05/10 05:56:11;;;;;;;;;;;;;;;19.71;38.47;100617.84;5323022;32;34310;-70
2023/05/10 05:59:13;;;;;;;;;;;;;;;19.65;38.37;100632.47;5325459;32;35955;-70
2023/05/10 06:02:15;;;;;;;;;;;;;;;19.02;39.68;100627.25;5318568;32;45086;-64
2023/05/10 06:05:18;;;;;;;;;;;;;;;19.18;39.41;100635.84;5335119;32;34360;-63
2023/05/10 06:08:20;;;;;;;;;;;;;;;19.34;39.15;100633.78;5330476;32;35074;-75
2023/05/10 06:11:25;;;;;;;;;;;;;;;19.33;39.18;100632.09;5334952;32;35409;-71
2023/05/10 06:14:27;;;;;;;;;;;;;;;20.52;36.77;100625.09;5315578;32;34803;-79
2023/05/10 06:17:29;;;;;;;;;;;;;;;20.10;37.57;100626.50;5337003;32;34719;-70
2023/05/10 06:20:31;;;;;;;;;;;;;;;20.46;36.85;100626.41;5335645;32;34554;-67
2023/05/10 06:23:33;;;;;;;;;;;;;;;20.88;36.30;100623.22;5322325;32;36215;-70
2023/05/10 06:26:35;;;;;;;;;;;;;;;21.26;35.71;100622.84;5335070;32;34291;-78
2023/05/10 06:29:37;;;;;;;;;;;;;;;21.14;36.22;100618.47;5318154;32;34260;-73
2023/05/10 06:32:39;;;;;;;;;;;;;;;21.39;35.59;100634.28;5341192;32;34166;-78
2023/05/10 06:35:42;;;;;;;;;;;;;;;20.31;37.79;100640.91;5334468;32;34452;-74
2023/05/10 06:38:44;;;;;;;;;;;;;;;19.02;40.74;100648.56;5327012;32;37926;-72
2023/05/10 06:41:46;;;;;;;;;;;;;;;20.12;38.58;100636.09;5330517;32;44114;-80
2023/05/10 06:44:48;;;;;;;;;;;;;;;20.82;37.50;100640.56;5315051;32;34489;-68
2023/05/10 06:47:50;;;;;;;;;;;;;;;21.54;36.25;100630.37;5314976;32;35462;-69
2023/05/10 06:50:52;;;;;;;;;;;;;;;21.74;35.69;100639.44;5321967;32;35635;-70
2023/05/10 06:53:54;;;;;;;;;;;;;;;21.93;35.59;100635.25;5323097;32;34188;-67
2023/05/10 06:56:56;;;;;;;;;;;;;;;22.08;35.07;100626.78;5319049;32;34466;-71
2023/05/10 06:59:58;;;;;;;;;;;;;;;21.25;36.58;100631.81;5333992;32;33492;-71
2023/05/10 07:03:03;;;;;;;;;;;;;;;21.94;35.63;100627.09;5338380;32;34859;-68
2023/05/10 07:06:07;;;;;;;;;;;;;;;21.00;36.60;100622.25;5324141;32;34489;-77
2023/05/10 07:09:26;;;;;;;;;;;;;;;22.59;34.23;100642.16;5320437;32;34843;-72
2023/05/10 07:12:28;;;;;;;;;;;;;;;21.88;35.09;100619.56;5316346;32;34670;-76
2023/05/10 07:15:30;;;;;;;;;;;;;;;22.48;34.01;100634.19;5336539;32;34754;-66
2023/05/10 07:18:32;;;;;;;;;;;;;;;23.21;32.59;100618.94;5318538;32;36551;-72
2023/05/10 07:21:35;;;;;;;;;;;;;;;24.12;31.37;100612.50;5332288;32;35642;-75
2023/05/10 07:24:37;;;;;;;;;;;;;;;23.75;31.41;100615.88;5337794;32;35663;-86
2023/05/10 07:27:39;;;;;;;;;;;;;;;22.80;33.03;100622.53;5333365;32;35018;-78
2023/05/10 07:30:41;;;;;;;;;;;;;;;22.43;33.77;100609.63;5325402;32;34402;-71
2023/05/10 07:33:43;;;;;;;;;;;;;;;21.39;35.62;100614.72;5315282;32;34349;-66
2023/05/10 07:36:45;;;;;;;;;;;;;;;21.90;34.88;100609.63;5334569;32;43400;-68
2023/05/10 07:39:47;;;;;;;;;;;;;;;23.47;31.95;100606.75;5332872;32;34277;-72
2023/05/10 07:42:49;;;;;;;;;;;;;;;23.72;31.23;100600.06;5329913;32;34365;-77
2023/05/10 07:45:51;;;;;;;;;;;;;;;23.60;31.51;100595.75;5318269;32;34323;-72
2023/05/10 07:48:56;;;;;;;;;;;;;;;23.83;31.43;100598.22;5311078;32;35627;-77
2023/05/10 07:51:58;;;;;;;;;;;;;;;23.12;32.22;100601.84;5331890;32;34134;-70
2023/05/10 07:55:01;;;;;;;;;;;;;;;22.48;33.11;100604.75;5334054;32;34436;-82
2023/05/10 07:58:06;;;;;;;;;;;;;;;23.16;32.16;100603.25;5327173;32;34406;-74
2023/05/10 08:01:08;;;;;;;;;;;;;;;22.36;33.34;100609.31;5323254;32;34946;-72
2023/05/10 08:04:11;;;;;;;;;;;;;;;22.08;34.52;100605.38;5279535;32;35470;-73
2023/05/10 08:07:13;;;;;;;;;;;;;;;23.21;32.72;100609.06;5329347;32;33465;-78
2023/05/10 08:10:16;;;;;;;;;;;;;;;23.01;32.50;100599.28;5319380;32;46294;-73
2023/05/10 08:13:19;;;;;;;;;;;;;;;22.29;33.47;100609.97;5331577;32;35511;-73
2023/05/10 08:16:21;;;;;;;;;;;;;;;21.23;35.62;100618.59;5328070;32;34793;-74
2023/05/10 08:19:23;;;;;;;;;;;;;;;21.86;34.05;100617.03;5331758;32;34295;-70
2023/05/10 08:22:26;;;;;;;;;;;;;;;21.20;35.34;100612.66;5322442;32;34138;-67
2023/05/10 08:25:35;;;;;;;;;;;;;;;22.16;33.89;100597.63;5332604;32;34324;-69
2023/05/10 08:28:37;;;;;;;;;;;;;;;21.94;33.99;100607.53;5332623;32;35513;-69
2023/05/10 08:31:40;;;;;;;;;;;;;;;22.77;32.27;100612.09;5312675;32;34324;-75
2023/05/10 08:34:42;;;;;;;;;;;;;;;22.30;33.09;100606.31;5342635;32;35778;-75
2023/05/10 08:37:45;;;;;;;;;;;;;;;23.38;31.30;100606.72;5310726;32;34245;-74
2023/05/10 08:40:47;;;;;;;;;;;;;;;23.00;31.42;100613.66;5317579;32;47089;-75
2023/05/10 08:43:49;;;;;;;;;;;;;;;23.61;30.41;100591.25;5325205;32;34520;-73
2023/05/10 08:46:51;;;;;;;;;;;;;;;22.35;31.91;100606.78;5303572;32;35249;-77
2023/05/10 08:49:53;;;;;;;;;;;;;;;21.96;32.80;100601.09;5317707;32;36153;-74
2023/05/10 08:52:56;;;;;;;;;;;;;;;21.56;34.23;100606.16;5318114;32;34371;-77
2023/05/10 08:55:58;;;;;;;;;;;;;;;21.50;34.70;100604.00;5335735;32;34276;-73
2023/05/10 08:59:00;;;;;;;;;;;;;;;21.55;34.95;100607.16;5323411;32;35486;-72
2023/05/10 09:02:02;;;;;;;;;;;;;;;23.13;32.06;100600.88;5316272;32;35586;-69
2023/05/10 09:05:05;;;;;;;;;;;;;;;23.54;31.05;100609.72;5306635;32;35756;-66
2023/05/10 09:08:07;;;;;;;;;;;;;;;23.75;30.62;100594.41;5314387;32;35602;-86
2023/05/10 09:11:10;;;;;;;;;;;;;;;24.72;28.53;100588.94;5322483;32;34645;-83
2023/05/10 09:14:12;;;;;;;;;;;;;;;24.16;29.86;100597.81;5318277;32;34338;-69
2023/05/10 09:17:14;;;;;;;;;;;;;;;25.08;28.12;100597.22;5337814;32;34310;-72
2023/05/10 09:20:20;;;;;;;;;;;;;;;26.25;27.00;100581.12;5324169;32;46121;-76
2023/05/10 09:23:31;;;;;;;;;;;;;;;26.27;26.25;100585.34;5322018;32;34246;-74
2023/05/10 09:26:33;;;;;;;;;;;;;;;25.37;27.99;100595.25;5333141;32;34322;-66
2023/05/10 09:29:39;;;;;;;;;;;;;;;23.81;29.87;100605.56;5321561;32;35431;-68
2023/05/10 09:32:42;;;;;;;;;;;;;;;23.98;29.75;100584.25;5318058;32;35731;-69
2023/05/10 09:35:45;;;;;;;;;;;;;;;26.02;26.70;100578.94;5324809;32;35872;-78
2023/05/10 09:38:48;;;;;;;;;;;;;;;25.98;26.22;100580.22;5335167;32;46800;-70
2023/05/10 09:41:50;;;;;;;;;;;;;;;26.65;25.58;100576.03;5321444;32;34081;-71
2023/05/10 09:44:52;;;;;;;;;;;;;;;26.08;25.72;100572.06;5314781;32;34926;-70
2023/05/10 09:47:55;;;;;;;;;;;;;;;25.20;27.23;100585.28;5315692;32;34345;-70
2023/05/10 09:50:58;;;;;;;;;;;;;;;24.26;28.63;100574.47;5323867;32;36242;-71
2023/05/10 09:54:13;;;;;;;;;;;;;;;23.82;29.68;100572.37;5322700;32;34411;-67
2023/05/10 09:57:18;;;;;;;;;;;;;;;24.01;29.56;100578.56;5315416;32;34538;-73
2023/05/10 10:00:20;;;;;;;;;;;;;;;25.85;26.50;100572.53;5320322;32;44566;-67
2023/05/10 10:03:24;;;;;;;;;;;;;;;24.74;28.22;100570.88;5306096;32;33708;-76
2023/05/10 10:06:40;;;;;;;;;;;;;;;26.42;26.03;100569.50;5317509;32;35505;-66
2023/05/10 10:09:47;;;;;;;;;;;;;;;23.97;29.85;100558.41;5338036;32;47749;-67
2023/05/10 10:12:49;;;;;;;;;;;;;;;24.72;28.33;100569.28;5328027;32;35667;-66
2023/05/10 10:15:52;;;;;;;;;;;;;;;24.24;28.59;100560.34;5328884;32;34250;-62
2023/05/10 10:18:54;;;;;;;;;;;;;;;24.71;28.35;100557.69;5316541;32;35454;-78
2023/05/10 10:21:57;;;;;;;;;;;;;;;26.85;25.65;100549.69;5315194;32;35496;-80
2023/05/10 10:24:59;;;;;;;;;;;;;;;27.95;23.59;100548.69;5317934;32;37743;-70
2023/05/10 10:28:06;;;;;;;;;;;;;;;27.18;24.12;100542.63;5313252;32;34254;-71
2023/05/10 10:31:28;;;;;;;;;;;;;;;25.98;25.79;100541.69;5319516;32;34120;-70
2023/05/10 10:34:31;;;;;;;;;;;;;;;25.60;26.04;100532.91;5318152;32;37261;-67
2023/05/10 10:37:44;;;;;;;;;;;;;;;26.10;25.02;100532.37;5314732;32;34046;-85
2023/05/10 10:40:49;;;;;;;;;;;;;;;27.64;22.95;100531.44;5326366;32;44423;-71
2023/05/10 10:44:09;;;;;;;;;;;;;;;27.61;22.69;100526.34;5312608;32;35514;-71
2023/05/10 10:47:29;;;;;;;;;;;;;;;26.97;23.36;100521.44;5307814;32;46259;-72
2023/05/10 10:50:31;;;;;;;;;;;;;;;25.37;25.94;100533.34;5314128;32;33999;-69
2023/05/10 10:53:34;;;;;;;;;;;;;;;25.99;25.35;100514.59;5323591;32;34412;-73
2023/05/10 10:56:36;;;;;;;;;;;;;;;25.19;26.20;100519.03;5322505;32;35502;-69
2023/05/10 10:59:43;;;;;;;;;;;;;;;24.45;27.03;100516.34;5310812;32;34655;-75
2023/05/10 11:02:48;;;;;;;;;;;;;;;24.68;26.97;100508.78;5316757;32;45431;-67
2023/05/10 11:05:52;;;;;;;;;;;;;;;23.80;27.62;100515.31;5324584;32;35379;-70
2023/05/10 11:09:08;;;;;;;;;;;;;;;26.48;23.91;100498.81;5336660;32;36029;-72
2023/05/10 11:12:11;;;;;;;;;;;;;;;24.54;26.51;100507.44;5324933;32;33500;-71
2023/05/10 11:15:13;;;;;;;;;;;;;;;24.70;26.74;100493.34;5311543;32;35526;-75
2023/05/10 11:18:15;;;;;;;;;;;;;;;;;;5318921;32;34767;-73
2023/05/10 11:21:17;;;;;;;;;;;;;;;25.13;25.98;100498.13;5330981;32;34736;-70
2023/05/10 11:24:20;;;;;;;;;;;;;;;22.87;29.22;100516.56;5325899;32;34357;-69
2023/05/10 11:27:22;;;;;;;;;;;;;;;22.61;29.43;100495.56;5320419;32;36044;-72
2023/05/10 11:30:27;;;;;;;;;;;;;;;21.46;31.05;100501.81;5329609;32;34626;-71
2023/05/10 11:33:29;;;;;;;;;;;;;;;21.69;30.86;100488.31;5311723;32;34291;-80
2023/05/10 11:36:35;;;;;;;;;;;;;;;21.32;31.75;100483.38;5318251;32;34963;-81
2023/05/10 11:39:45;;;;;;;;;;;;;;;22.24;29.70;100487.19;5318082;32;34560;-64
2023/05/10 11:42:50;;;;;;;;;;;;;;;22.07;30.21;100485.06;5304130;32;46186;-71
2023/05/10 11:45:52;;;;;;;;;;;;;;;21.13;31.92;100489.34;5309710;32;34838;-74
2023/05/10 11:49:01;;;;;;;;;;;;;;;22.66;29.79;100482.59;5290783;32;35144;-70
2023/05/10 11:52:04;;;;;;;;;;;;;;;23.39;28.18;100474.34;5307563;32;35652;-70
2023/05/10 11:55:06;;;;;;;;;;;;;;;22.87;29.00;100474.53;5329367;32;34400;-71
2023/05/10 11:58:11;;;;;;;;;;;;;;;23.04;29.14;100478.38;5328864;32;35665;-63
2023/05/10 12:01:13;;;;;;;;;;;;;;;21.48;31.79;100482.94;5323651;32;33969;-65
2023/05/10 12:04:15;;;;;;;;;;;;;;;22.49;29.63;100491.28;5294419;32;34357;-63
2023/05/10 12:07:18;;;;;;;;;;;;;;;21.71;30.56;100486.41;5336275;32;44691;-75
2023/05/10 12:10:25;;;;;;;;;;;;;;;22.83;28.90;100466.84;5329605;32;34665;-85
2023/05/10 12:13:29;;;;;;;;;;;;;;;21.44;31.20;100479.66;5309957;32;35580;-72
2023/05/10 12:16:32;;;;;;;;;;;;;;;21.73;30.15;100481.75;5322363;32;34358;-77
2023/05/10 12:19:38;;;;;;;;;;;;;;;21.63;30.73;100477.16;5327922;32;35318;-67
2023/05/10 12:22:40;;;;;;;;;;;;;;;21.65;30.81;100495.78;5326259;32;35862;-70
2023/05/10 12:25:43;;;;;;;;;;;;;;;21.83;30.44;100472.84;5327236;32;33709;-72
2023/05/10 12:28:45;;;;;;;;;;;;;;;21.41;31.26;100471.91;5334769;32;35398;-64
2023/05/10 12:31:53;;;;;;;;;;;;;;;21.75;30.74;100482.47;5331452;32;44526;-67
2023/05/10 12:34:55;;;;;;;;;;;;;;;22.96;29.07;100484.41;5334376;32;34184;-70
2023/05/10 12:37:57;;;;;;;;;;;;;;;22.68;29.39;100479.78;5327999;32;36382;-67
2023/05/10 12:41:00;;;;;;;;;;;;;;;21.85;30.55;100465.50;5329655;32;35067;-73
2023/05/10 12:44:02;;;;;;;;;;;;;;;22.03;30.54;100447.03;5326091;32;34307;-67
2023/05/10 12:47:03;;;;;;;;;;;;;;;22.13;30.28;100463.19;5321246;32;34397;-74
2023/05/10 12:50:10;;;;;;;;;;;;;;;22.01;30.02;100459.69;5324680;32;35185;-75
2023/05/10 12:53:15;;;;;;;;;;;;;;;22.51;29.18;100464.34;5341948;32;34501;-68
2023/05/10 12:56:21;;;;;;;;;;;;;;;22.19;29.57;100461.81;5338256;32;46692;-75
2023/05/10 12:59:23;;;;;;;;;;;;;;;21.84;30.94;100452.28;5325174;32;34936;-71
2023/05/10 13:02:25;;;;;;;;;;;;;;;22.36;30.10;100447.81;5334400;32;35120;-71
2023/05/10 13:05:27;;;;;;;;;;;;;;;21.74;30.56;100444.16;5339098;32;35063;-63
2023/05/10 13:08:33;;;;;;;;;;;;;;;22.38;29.63;100430.63;5330217;32;35030;-66
2023/05/10 13:11:36;;;;;;;;;;;;;;;22.71;28.67;100426.78;5328622;32;34624;-68
2023/05/10 13:14:40;;;;;;;;;;;;;;;22.85;28.20;100430.88;5338341;32;34505;-71
2023/05/10 13:17:45;;;;;;;;;;;;;;;23.12;27.81;100422.25;5319881;32;32128;-72
2023/05/10 13:20:49;;;;;;;;;;;;;;;22.93;28.42;100424.91;5323272;32;44739;-62
2023/05/10 13:23:51;;;;;;;;;;;;;;;22.83;28.32;100407.91;5326291;32;34740;-68
2023/05/10 13:26:56;;;;;;;;;;;;;;;23.42;27.70;100407.84;5336747;32;35190;-68
2023/05/10 13:29:59;;;;;;;;;;;;;;;22.95;28.49;100393.44;5333776;32;34285;-69
2023/05/10 13:33:01;;;;;;;;;;;;;;;23.08;27.89;100402.06;5319709;32;35278;-69
2023/05/10 13:36:03;;;;;;;;;;;;;;;23.52;27.02;100397.13;5340907;32;36298;-63
2023/05/10 13:39:08;;;;;;;;;;;;;;;23.28;27.54;100397.53;5335349;32;35522;-63
2023/05/10 13:42:13;;;;;;;;;;;;;;;23.16;27.92;100395.97;5339475;32;33539;-80
2023/05/10 13:45:15;;;;;;;;;;;;;;;22.02;29.39;100402.50;5326314;32;34223;-77
2023/05/10 13:48:21;;;;;;;;;;;;;;;22.64;28.81;100389.97;5314345;32;44444;-67
2023/05/10 13:51:26;;;;;;;;;;;;;;;22.68;28.42;100396.75;5322573;32;34381;-82
2023/05/10 13:54:31;;;;;;;;;;;;;;;22.39;27.85;100384.09;5325798;32;34864;-75
2023/05/10 13:57:35;;;;;;;;;;;;;;;23.07;27.03;100380.75;5331015;32;36626;-76
2023/05/10 14:00:37;;;;;;;;;;;;;;;22.80;27.27;100397.44;5325341;32;34177;-78
2023/05/10 14:03:40;;;;;;;;;;;;;;;22.62;27.32;100374.03;5322697;32;34514;-66
2023/05/10 14:06:42;;;;;;;;;;;;;;;22.25;26.50;100378.28;5318842;32;34843;-77
2023/05/10 14:09:44;;;;;;;;;;;;;;;21.88;27.65;100360.88;5327933;32;34224;-75
2023/05/10 14:12:46;;;;;;;;;;;;;;;21.78;28.16;100385.91;5340035;32;46967;-67
2023/05/10 14:15:54;;;;;;;;;;;;;;;21.88;28.17;100373.41;5326408;32;33941;-74
2023/05/10 14:18:57;;;;;;;;;;;;;;;21.74;27.93;100368.41;5336777;32;35260;-71
2023/05/10 14:21:59;;;;;;;;;;;;;;;21.60;28.29;100366.94;5326600;32;35381;-70
2023/05/10 14:25:02;;;;;;;;;;;;;;;21.89;28.29;100369.75;5333440;32;35203;-68
2023/05/10 14:28:04;;;;;;;;;;;;;;;21.85;27.68;100369.19;5333164;32;33763;-85
2023/05/10 14:31:10;;;;;;;;;;;;;;;21.43;28.23;100356.81;5327035;32;35699;-86
2023/05/10 14:34:12;;;;;;;;;;;;;;;21.42;27.85;100361.31;5335861;32;35816;-71
2023/05/10 14:37:17;;;;;;;;;;;;;;;21.25;27.96;100359.19;5324034;32;44666;-73
2023/05/10 14:40:18;;;;;;;;;;;;;;;20.93;28.41;100361.88;5332671;32;34385;-72
2023/05/10 14:43:20;;;;;;;;;;;;;;;21.76;27.24;100359.28;5324239;32;34805;-69
2023/05/10 14:46:22;;;;;;;;;;;;;;;21.80;27.17;100349.16;5322390;32;34108;-70
2023/05/10 14:49:25;;;;;;;;;;;;;;;21.58;27.87;100359.06;5310291;32;36142;-67
2023/05/10 14:52:27;;;;;;;;;;;;;;;21.48;28.00;100354.59;5327716;32;34257;-83
2023/05/10 14:55:29;;;;;;;;;;;;;;;20.81;29.44;100353.06;5335978;32;34861;-80
2023/05/10 14:58:34;;;;;;;;;;;;;;;21.24;28.98;100354.81;5327752;32;35915;-75
2023/05/10 15:01:37;;;;;;;;;;;;;;;21.71;29.32;100360.69;5339482;32;34342;-70
2023/05/10 15:04:40;;;;;;;;;;;;;;;21.23;29.63;100353.97;5327749;32;34627;-75
2023/05/10 15:07:43;;;;;;;;;;;;;;;21.14;29.73;100361.94;5331523;32;34441;-73
2023/05/10 15:10:45;;;;;;;;;;;;;;;20.39;30.79;100366.22;5329252;32;44702;-71
2023/05/10 15:13:47;;;;;;;;;;;;;;;20.98;29.71;100357.84;5325960;32;34344;-70
2023/05/10 15:16:49;;;;;;;;;;;;;;;21.04;29.45;100361.84;5339412;32;32569;-80
2023/05/10 15:19:51;;;;;;;;;;;;;;;21.02;29.35;100358.44;5326506;32;34174;-66
2023/05/10 15:22:53;;;;;;;;;;;;;;;20.93;29.15;100370.75;5338259;32;34364;-76
2023/05/10 15:25:55;;;;;;;;;;;;;;;20.21;30.00;100359.69;5330182;32;33257;-86
2023/05/10 15:28:57;;;;;;;;;;;;;;;20.53;29.44;100357.12;5323684;32;34724;-70
2023/05/10 15:32:02;;;;;;;;;;;;;;;21.05;28.90;100352.84;5341131;32;35034;-70
2023/05/10 15:35:04;;;;;;;;;;;;;;;20.79;29.02;100346.97;5328597;32;35490;-70
2023/05/10 15:38:06;;;;;;;;;;;;;;;21.13;28.49;100352.22;5337718;32;35712;-86
2023/05/10 15:41:09;;;;;;;;;;;;;;;19.92;30.81;100354.84;5315860;32;35131;-87
2023/05/10 15:44:11;;;;;;;;;;;;;;;20.78;29.77;100343.47;5327211;32;35217;-70